createdAt,value
2017-09-09T00:01:21.783Z,17.10
2017-09-09T00:03:50.848Z,17.00
2017-09-09T00:06:19.173Z,17.00
2017-09-09T00:08:47.470Z,17.00
2017-09-09T00:11:15.947Z,17.00
2017-09-09T00:13:44.250Z,17.00
2017-09-09T00:16:12.553Z,16.90
2017-09-09T00:18:41.648Z,16.90
2017-09-09T00:21:10.707Z,16.90
2017-09-09T00:23:39.026Z,16.80
2017-09-09T00:26:07.318Z,16.90
2017-09-09T00:28:35.978Z,16.90
2017-09-09T00:31:05.039Z,16.90
2017-09-09T00:33:33.335Z,16.80
2017-09-09T00:36:02.533Z,16.90
2017-09-09T00:38:30.926Z,16.80
2017-09-09T00:41:00.015Z,16.90
2017-09-09T00:43:29.090Z,16.90
2017-09-09T00:45:57.482Z,16.80
2017-09-09T00:48:25.959Z,16.80
2017-09-09T00:50:55.174Z,16.80
2017-09-09T00:53:23.468Z,16.80
2017-09-09T00:55:51.816Z,16.80
2017-09-09T00:58:20.194Z,16.80
2017-09-09T01:00:48.510Z,16.70
2017-09-09T01:03:16.852Z,16.70
2017-09-09T01:05:45.930Z,16.60
2017-09-09T01:08:15.344Z,16.70
2017-09-09T01:10:44.420Z,16.70
2017-09-09T01:13:12.808Z,16.70
2017-09-09T01:15:41.128Z,16.70
2017-09-09T01:18:09.476Z,16.70
2017-09-09T01:20:37.810Z,16.70
2017-09-09T01:23:06.124Z,16.70
2017-09-09T01:25:34.460Z,16.70
2017-09-09T01:28:02.771Z,16.70
2017-09-09T01:30:31.122Z,16.70
2017-09-09T01:32:59.454Z,16.80
2017-09-09T01:35:28.622Z,16.70
2017-09-09T01:37:57.968Z,16.70
2017-09-09T01:40:26.511Z,16.60
2017-09-09T01:42:54.892Z,16.70
2017-09-09T01:45:24.796Z,16.80
2017-09-09T01:47:53.891Z,16.80
2017-09-09T01:50:22.990Z,16.80
2017-09-09T01:52:52.084Z,16.80
2017-09-09T01:55:21.168Z,16.80
2017-09-09T01:57:50.647Z,16.80
2017-09-09T02:00:18.962Z,16.70
2017-09-09T02:02:48.176Z,16.80
2017-09-09T02:05:16.486Z,16.70
2017-09-09T02:07:44.791Z,16.80
2017-09-09T02:10:13.122Z,16.80
2017-09-09T02:12:41.426Z,16.70
2017-09-09T02:15:09.739Z,16.80
2017-09-09T02:17:38.836Z,16.80
2017-09-09T02:20:07.167Z,16.80
2017-09-09T02:22:35.499Z,16.80
2017-09-09T02:25:03.820Z,16.70
2017-09-09T02:27:32.119Z,16.70
2017-09-09T02:30:00.436Z,16.70
2017-09-09T02:32:28.737Z,16.80
2017-09-09T02:34:57.060Z,16.70
2017-09-09T02:37:26.126Z,16.70
2017-09-09T02:39:54.455Z,16.70
2017-09-09T02:42:23.539Z,16.70
2017-09-09T02:44:52.830Z,16.70
2017-09-09T02:47:21.908Z,16.70
2017-09-09T02:49:50.194Z,16.70
2017-09-09T02:52:18.539Z,16.70
2017-09-09T02:54:46.848Z,16.70
2017-09-09T02:57:15.158Z,16.70
2017-09-09T02:59:43.491Z,16.70
2017-09-09T03:02:11.811Z,16.70
2017-09-09T03:04:40.177Z,16.80
2017-09-09T03:07:09.244Z,16.70
2017-09-09T03:09:37.579Z,16.70
2017-09-09T03:12:05.907Z,16.70
2017-09-09T03:14:35.018Z,16.70
2017-09-09T03:17:03.315Z,16.60
2017-09-09T03:19:32.174Z,16.70
2017-09-09T03:22:01.303Z,16.60
2017-09-09T03:24:29.603Z,16.50
2017-09-09T03:26:57.931Z,16.60
2017-09-09T03:29:26.994Z,16.60
2017-09-09T03:31:55.318Z,16.50
2017-09-09T03:34:23.686Z,16.50
2017-09-09T03:36:52.181Z,16.50
2017-09-09T03:39:20.475Z,16.50
2017-09-09T03:41:48.811Z,16.50
2017-09-09T03:44:17.908Z,16.50
2017-09-09T03:46:46.973Z,16.50
2017-09-09T03:49:15.295Z,16.40
2017-09-09T03:51:43.592Z,16.40
2017-09-09T03:54:11.901Z,16.40
2017-09-09T03:56:40.202Z,16.50
2017-09-09T03:59:09.503Z,16.40
2017-09-09T04:01:38.572Z,16.40
2017-09-09T04:04:07.695Z,16.40
2017-09-09T04:06:36.002Z,16.40
2017-09-09T04:09:04.354Z,16.50
2017-09-09T04:11:33.447Z,16.40
2017-09-09T04:14:02.542Z,16.50
2017-09-09T04:16:31.639Z,16.40
2017-09-09T04:18:59.954Z,16.40
2017-09-09T04:21:28.274Z,16.50
2017-09-09T04:23:56.581Z,16.50
2017-09-09T04:26:25.034Z,16.50
2017-09-09T04:28:54.109Z,16.50
2017-09-09T04:31:22.396Z,16.40
2017-09-09T04:33:50.712Z,16.50
2017-09-09T04:36:19.020Z,16.40
2017-09-09T04:38:47.335Z,16.40
2017-09-09T04:41:15.645Z,16.40
2017-09-09T04:43:43.981Z,16.40
2017-09-09T04:46:13.099Z,16.40
2017-09-09T04:48:42.177Z,16.40
2017-09-09T04:51:10.463Z,16.30
2017-09-09T04:53:38.806Z,16.40
2017-09-09T04:56:07.094Z,16.40
2017-09-09T04:58:35.519Z,16.40
2017-09-09T05:01:03.835Z,16.40
2017-09-09T05:03:32.266Z,16.40
2017-09-09T05:06:00.611Z,16.40
2017-09-09T05:08:29.684Z,16.40
2017-09-09T05:10:58.121Z,16.40
2017-09-09T05:13:26.410Z,16.40
2017-09-09T05:15:54.699Z,16.50
2017-09-09T05:18:23.033Z,16.50
2017-09-09T05:20:52.098Z,16.50
2017-09-09T05:23:20.501Z,16.50
2017-09-09T05:25:48.810Z,16.60
2017-09-09T05:28:17.148Z,16.60
2017-09-09T05:30:46.211Z,16.50
2017-09-09T05:33:14.722Z,16.50
2017-09-09T05:35:43.034Z,16.60
2017-09-09T05:38:11.332Z,16.60
2017-09-09T05:40:39.670Z,16.60
2017-09-09T05:43:08.052Z,16.70
2017-09-09T05:45:37.138Z,16.70
2017-09-09T05:48:06.235Z,16.80
2017-09-09T05:50:34.932Z,16.70
2017-09-09T05:53:03.987Z,16.80
2017-09-09T05:55:33.115Z,16.90
2017-09-09T05:58:01.430Z,16.90
2017-09-09T06:00:29.773Z,16.90
2017-09-09T06:02:58.999Z,17.00
2017-09-09T06:05:27.419Z,16.90
2017-09-09T06:07:55.719Z,17.00
2017-09-09T06:10:24.090Z,17.10
2017-09-09T06:12:52.482Z,17.10
2017-09-09T06:15:21.658Z,17.10
2017-09-09T06:17:49.999Z,17.00
2017-09-09T06:20:18.513Z,17.10
2017-09-09T06:22:46.907Z,17.20
2017-09-09T06:25:15.223Z,17.20
2017-09-09T06:27:43.533Z,17.20
2017-09-09T06:30:11.823Z,17.20
2017-09-09T06:32:40.128Z,17.20
2017-09-09T06:35:08.432Z,17.20
2017-09-09T06:37:36.750Z,17.10
2017-09-09T06:40:05.848Z,17.10
2017-09-09T06:42:35.054Z,17.10
2017-09-09T06:45:04.128Z,17.10
2017-09-09T06:47:33.208Z,17.10
2017-09-09T06:50:01.531Z,17.00
2017-09-09T06:52:29.900Z,17.10
2017-09-09T06:54:58.220Z,17.10
2017-09-09T06:57:26.525Z,17.10
2017-09-09T06:59:54.854Z,17.10
2017-09-09T07:02:23.209Z,17.10
2017-09-09T07:04:52.470Z,17.20
2017-09-09T07:07:20.786Z,17.20
2017-09-09T07:09:49.878Z,17.30
2017-09-09T07:12:18.970Z,17.40
2017-09-09T07:14:47.337Z,17.30
2017-09-09T07:17:15.708Z,17.50
2017-09-09T07:19:44.783Z,17.60
2017-09-09T07:22:14.022Z,17.60
2017-09-09T07:24:43.070Z,17.60
2017-09-09T07:27:11.687Z,17.60
2017-09-09T07:29:39.986Z,17.60
2017-09-09T07:32:08.285Z,17.70
2017-09-09T07:34:36.622Z,17.70
2017-09-09T07:37:05.745Z,17.60
2017-09-09T07:39:34.067Z,17.50
2017-09-09T07:42:02.469Z,17.60
2017-09-09T07:44:31.588Z,17.60
2017-09-09T07:46:59.896Z,17.60
2017-09-09T07:49:28.635Z,17.70
2017-09-09T07:51:57.710Z,17.60
2017-09-09T07:54:26.027Z,17.60
2017-09-09T07:56:54.375Z,17.60
2017-09-09T07:59:23.447Z,17.50
2017-09-09T08:01:52.552Z,17.50
2017-09-09T08:04:20.867Z,17.50
2017-09-09T08:06:49.352Z,17.50
2017-09-09T08:09:17.643Z,17.50
2017-09-09T08:11:46.078Z,17.50
2017-09-09T08:14:14.391Z,17.50
2017-09-09T08:16:42.695Z,17.50
2017-09-09T08:19:11.037Z,17.50
2017-09-09T08:21:39.336Z,17.50
2017-09-09T08:24:07.755Z,17.50
2017-09-09T08:26:36.085Z,17.50
2017-09-09T08:29:04.412Z,17.50
2017-09-09T08:31:32.764Z,17.50
2017-09-09T08:34:01.073Z,17.50
2017-09-09T08:36:30.256Z,17.60
2017-09-09T08:38:59.335Z,17.60
2017-09-09T08:41:27.744Z,17.60
2017-09-09T08:43:56.035Z,17.70
2017-09-09T08:46:24.415Z,17.60
2017-09-09T08:48:52.789Z,17.60
2017-09-09T08:51:21.106Z,17.60
2017-09-09T08:53:49.479Z,17.60
2017-09-09T08:56:17.809Z,17.60
2017-09-09T08:58:46.212Z,17.60
2017-09-09T09:01:14.531Z,17.70
2017-09-09T09:06:17.426Z,17.70
2017-09-09T09:08:45.939Z,17.70
2017-09-09T09:11:15.007Z,17.70
2017-09-09T09:13:43.311Z,17.60
2017-09-09T09:16:11.628Z,17.60
2017-09-09T09:18:39.963Z,17.60
2017-09-09T09:21:09.059Z,17.70
2017-09-09T09:23:37.344Z,17.60
2017-09-09T09:26:05.800Z,17.70
2017-09-09T09:28:34.148Z,17.70
2017-09-09T09:31:02.455Z,17.70
2017-09-09T09:33:30.769Z,17.70
2017-09-09T09:35:59.095Z,17.70
2017-09-09T09:38:27.440Z,17.60
2017-09-09T09:40:55.753Z,17.70
2017-09-09T09:43:24.259Z,17.70
2017-09-09T09:45:52.555Z,17.70
2017-09-09T09:48:20.858Z,17.80
2017-09-09T09:50:49.203Z,17.80
2017-09-09T09:53:17.514Z,17.70
2017-09-09T09:55:46.056Z,17.60
2017-09-09T09:58:14.349Z,17.70
2017-09-09T10:00:42.647Z,17.70
2017-09-09T10:03:10.972Z,17.80
2017-09-09T10:05:39.318Z,18.00
2017-09-09T10:08:07.635Z,18.10
2017-09-09T10:10:36.697Z,18.30
2017-09-09T10:13:05.028Z,18.20
2017-09-09T10:15:33.327Z,18.30
2017-09-09T10:18:01.750Z,18.30
2017-09-09T10:20:30.047Z,18.30
2017-09-09T10:22:58.355Z,18.30
2017-09-09T10:25:29.160Z,18.30
2017-09-09T10:27:57.467Z,18.30
2017-09-09T10:30:25.774Z,18.60
2017-09-09T10:32:54.078Z,18.70
2017-09-09T10:35:22.400Z,18.90
2017-09-09T10:37:50.711Z,19.10
2017-09-09T10:40:19.031Z,19.20
2017-09-09T10:42:47.349Z,19.40
2017-09-09T10:45:16.562Z,19.90
2017-09-09T10:47:45.652Z,20.00
2017-09-09T10:50:13.965Z,20.00
2017-09-09T10:52:42.309Z,20.10
2017-09-09T10:55:10.606Z,20.20
2017-09-09T10:57:38.978Z,20.20
2017-09-09T11:00:07.256Z,20.10
2017-09-09T11:02:36.345Z,20.10
2017-09-09T11:05:05.411Z,19.90
2017-09-09T11:07:33.858Z,19.80
2017-09-09T11:10:02.166Z,19.60
2017-09-09T11:12:30.484Z,19.40
2017-09-09T11:14:59.582Z,19.10
2017-09-09T11:17:27.872Z,19.10
2017-09-09T11:19:56.217Z,19.20
2017-09-09T11:22:25.282Z,19.10
2017-09-09T11:24:53.610Z,19.00
2017-09-09T11:27:21.927Z,18.90
2017-09-09T11:29:50.258Z,18.80
2017-09-09T11:32:18.557Z,18.60
2017-09-09T11:34:46.939Z,18.40
2017-09-09T11:37:15.299Z,18.30
2017-09-09T11:39:43.608Z,18.30
2017-09-09T11:42:12.069Z,18.50
2017-09-09T11:44:40.368Z,18.70
2017-09-09T11:47:08.683Z,19.00
2017-09-09T11:49:37.778Z,19.40
2017-09-09T11:52:06.068Z,19.40
2017-09-09T11:54:34.390Z,19.50
2017-09-09T11:57:02.717Z,19.60
2017-09-09T11:59:31.920Z,20.00
2017-09-09T12:02:00.991Z,20.20
2017-09-09T12:04:29.315Z,20.10
2017-09-09T12:06:57.666Z,20.10
2017-09-09T12:09:26.731Z,20.10
2017-09-09T12:11:55.047Z,20.10
2017-09-09T12:14:23.355Z,20.10
2017-09-09T12:16:51.683Z,20.20
2017-09-09T12:19:19.999Z,20.30
2017-09-09T12:21:48.457Z,20.50
2017-09-09T12:24:16.766Z,20.60
2017-09-09T12:26:45.071Z,20.60
2017-09-09T12:29:13.386Z,20.80
2017-09-09T12:31:41.732Z,20.90
2017-09-09T12:34:10.046Z,20.60
2017-09-09T12:36:38.353Z,20.30
2017-09-09T12:39:06.671Z,20.20
2017-09-09T12:41:35.742Z,20.10
2017-09-09T12:44:04.074Z,20.10
2017-09-09T12:46:32.366Z,20.10
2017-09-09T12:49:00.900Z,20.10
2017-09-09T12:51:29.976Z,19.80
2017-09-09T12:53:58.277Z,19.70
2017-09-09T12:56:27.514Z,19.60
2017-09-09T12:58:55.859Z,19.50
2017-09-09T13:01:24.190Z,19.60
2017-09-09T13:03:52.486Z,19.70
2017-09-09T13:06:21.702Z,19.90
2017-09-09T13:08:50.787Z,20.00
2017-09-09T13:11:19.081Z,20.00
2017-09-09T13:13:47.412Z,20.20
2017-09-09T13:16:16.508Z,20.30
2017-09-09T13:18:44.955Z,20.30
2017-09-09T13:21:13.247Z,20.50
2017-09-09T13:23:41.559Z,20.60
2017-09-09T13:26:10.667Z,20.80
2017-09-09T13:28:39.735Z,20.90
2017-09-09T13:31:08.156Z,20.90
2017-09-09T13:33:37.310Z,21.00
2017-09-09T13:36:05.679Z,20.90
2017-09-09T13:38:33.986Z,21.10
2017-09-09T13:41:03.076Z,21.00
2017-09-09T13:43:32.154Z,20.80
2017-09-09T13:46:00.623Z,20.70
2017-09-09T13:48:28.924Z,20.50
2017-09-09T13:50:57.991Z,20.30
2017-09-09T13:53:26.314Z,20.20
2017-09-09T13:55:54.635Z,20.10
2017-09-09T13:58:22.970Z,19.90
2017-09-09T14:00:51.284Z,19.60
2017-09-09T14:03:19.734Z,18.90
2017-09-09T14:05:48.072Z,18.40
2017-09-09T14:08:17.163Z,17.90
2017-09-09T14:10:45.486Z,17.90
2017-09-09T14:13:13.777Z,17.80
2017-09-09T14:15:42.119Z,17.70
2017-09-09T14:18:11.187Z,17.70
2017-09-09T14:20:39.600Z,17.60
2017-09-09T14:23:07.906Z,17.60
2017-09-09T14:25:36.208Z,17.70
2017-09-09T14:28:04.562Z,18.00
2017-09-09T14:30:32.911Z,18.30
2017-09-09T14:33:01.231Z,18.50
2017-09-09T14:35:29.553Z,18.50
2017-09-09T14:37:58.662Z,18.70
2017-09-09T14:40:26.966Z,18.60
2017-09-09T14:42:55.283Z,18.70
2017-09-09T14:45:23.637Z,18.80
2017-09-09T14:47:52.064Z,18.70
2017-09-09T14:50:20.358Z,18.60
2017-09-09T14:52:48.691Z,18.50
2017-09-09T14:55:17.016Z,18.50
2017-09-09T14:57:45.318Z,18.60
2017-09-09T15:00:13.637Z,18.60
2017-09-09T15:02:41.932Z,18.80
2017-09-09T15:05:11.003Z,19.00
2017-09-09T15:07:39.316Z,19.00
2017-09-09T15:10:07.655Z,19.10
2017-09-09T15:12:36.045Z,19.20
2017-09-09T15:15:05.253Z,19.50
2017-09-09T15:17:34.316Z,19.60
2017-09-09T15:20:03.392Z,19.70
2017-09-09T15:22:31.718Z,19.60
2017-09-09T15:25:00.121Z,19.70
2017-09-09T15:27:28.465Z,19.80
2017-09-09T15:29:56.841Z,19.90
2017-09-09T15:32:25.930Z,19.90
2017-09-09T15:34:54.982Z,19.90
2017-09-09T15:37:23.715Z,19.80
2017-09-09T15:39:52.027Z,19.80
2017-09-09T15:42:20.335Z,19.80
2017-09-09T15:44:48.686Z,19.80
2017-09-09T15:47:16.979Z,19.60
2017-09-09T15:49:45.290Z,19.50
2017-09-09T15:52:14.364Z,19.40
2017-09-09T15:54:42.764Z,19.40
2017-09-09T15:57:11.046Z,19.50
2017-09-09T15:59:40.133Z,19.40
2017-09-09T16:02:09.235Z,19.40
2017-09-09T16:04:37.584Z,19.30
2017-09-09T16:07:05.906Z,19.40
2017-09-09T16:09:34.257Z,19.30
2017-09-09T16:12:02.579Z,19.30
2017-09-09T16:14:30.921Z,19.30
2017-09-09T16:17:00.224Z,19.30
2017-09-09T16:19:29.287Z,19.30
2017-09-09T16:21:57.599Z,19.30
2017-09-09T16:24:25.943Z,19.20
2017-09-09T16:26:54.344Z,19.40
2017-09-09T16:29:23.452Z,19.80
2017-09-09T16:31:51.763Z,19.70
2017-09-09T16:34:20.083Z,19.70
2017-09-09T16:36:49.195Z,19.50
2017-09-09T16:39:18.289Z,19.40
2017-09-09T16:41:46.590Z,19.30
2017-09-09T16:44:15.139Z,19.20
2017-09-09T16:46:43.454Z,19.10
2017-09-09T16:49:11.787Z,18.90
2017-09-09T16:51:40.908Z,18.90
2017-09-09T16:54:09.966Z,18.80
2017-09-09T16:56:38.291Z,18.70
2017-09-09T16:59:06.595Z,18.70
2017-09-09T17:01:35.343Z,18.60
2017-09-09T17:04:03.646Z,18.40
2017-09-09T17:06:31.955Z,18.40
2017-09-09T17:09:01.923Z,18.30
2017-09-09T17:11:30.262Z,18.10
2017-09-09T17:13:59.361Z,17.90
2017-09-09T17:16:27.674Z,17.90
2017-09-09T17:18:56.002Z,17.90
2017-09-09T17:21:25.093Z,17.70
2017-09-09T17:23:53.600Z,17.70
2017-09-09T17:26:22.675Z,17.50
2017-09-09T17:28:51.753Z,17.40
2017-09-09T17:31:20.123Z,17.40
2017-09-09T17:33:48.531Z,17.40
2017-09-09T17:36:17.612Z,17.20
2017-09-09T17:38:45.943Z,17.20
2017-09-09T17:41:14.530Z,17.20
2017-09-09T17:43:42.866Z,17.10
2017-09-09T17:46:11.183Z,17.10
2017-09-09T17:48:39.531Z,17.00
2017-09-09T17:51:07.859Z,16.90
2017-09-09T17:53:36.307Z,16.80
2017-09-09T17:56:04.667Z,16.70
2017-09-09T17:58:33.124Z,16.60
2017-09-09T18:01:02.258Z,16.40
2017-09-09T18:03:30.582Z,16.40
2017-09-09T18:05:58.928Z,16.40
2017-09-09T18:08:27.335Z,16.30
2017-09-09T18:10:56.444Z,16.30
2017-09-09T18:13:24.762Z,16.20
2017-09-09T18:15:53.828Z,16.30
2017-09-09T18:18:22.236Z,16.20
2017-09-09T18:20:50.538Z,16.30
2017-09-09T18:23:18.919Z,16.20
2017-09-09T18:25:47.362Z,16.20
2017-09-09T18:28:15.783Z,16.30
2017-09-09T18:30:44.077Z,16.30
2017-09-09T18:33:12.407Z,16.30
2017-09-09T18:35:40.744Z,16.40
2017-09-09T18:38:09.851Z,16.40
2017-09-09T18:40:38.915Z,16.50
2017-09-09T18:43:07.248Z,16.40
2017-09-09T18:45:35.531Z,16.50
2017-09-09T18:48:03.871Z,16.60
2017-09-09T18:50:32.195Z,16.50
2017-09-09T18:53:00.537Z,16.60
2017-09-09T18:55:28.867Z,16.50
2017-09-09T18:57:57.183Z,16.60
2017-09-09T19:00:26.368Z,16.50
2017-09-09T19:02:54.826Z,16.50
2017-09-09T19:05:23.111Z,16.50
2017-09-09T19:07:51.523Z,16.50
2017-09-09T19:10:19.844Z,16.60
2017-09-09T19:12:48.255Z,16.60
2017-09-09T19:15:16.550Z,16.60
2017-09-09T19:17:45.001Z,16.60
2017-09-09T19:20:13.309Z,16.60
2017-09-09T19:22:42.362Z,16.50
2017-09-09T19:25:10.671Z,16.50
2017-09-09T19:27:38.945Z,16.40
2017-09-09T19:30:07.328Z,16.40
2017-09-09T19:32:36.387Z,16.30
2017-09-09T19:35:04.718Z,16.30
2017-09-09T19:37:33.046Z,16.30
2017-09-09T19:40:01.429Z,16.20
2017-09-09T19:42:29.731Z,16.20
2017-09-09T19:44:58.066Z,16.10
2017-09-09T19:47:26.388Z,16.00
2017-09-09T19:49:54.707Z,16.00
2017-09-09T19:52:23.015Z,16.10
2017-09-09T19:54:51.722Z,16.10
2017-09-09T19:57:20.030Z,16.00
2017-09-09T19:59:48.383Z,16.10
2017-09-09T20:02:16.857Z,16.00
2017-09-09T20:04:45.179Z,16.00
2017-09-09T20:07:13.584Z,15.90
2017-09-09T20:09:42.920Z,15.90
2017-09-09T20:12:11.380Z,15.90
2017-09-09T20:14:39.838Z,15.90
2017-09-09T20:17:08.139Z,15.90
2017-09-09T20:19:37.240Z,16.00
2017-09-09T20:22:06.307Z,16.00
2017-09-09T20:24:34.638Z,16.00
2017-09-09T20:27:02.954Z,16.00
2017-09-09T20:29:31.408Z,16.00
2017-09-09T20:31:59.725Z,16.00
2017-09-09T20:34:28.024Z,16.00
2017-09-09T20:36:57.478Z,16.00
2017-09-09T20:39:25.814Z,16.00
2017-09-09T20:41:54.187Z,16.00
2017-09-09T20:44:22.504Z,15.90
2017-09-09T20:46:50.820Z,15.90
2017-09-09T20:49:19.208Z,15.80
2017-09-09T20:51:48.347Z,15.70
2017-09-09T20:54:16.641Z,15.70
2017-09-09T20:56:45.039Z,15.60
2017-09-09T20:59:14.215Z,15.50
2017-09-09T21:01:42.634Z,15.50
2017-09-09T21:04:11.737Z,15.40
2017-09-09T21:06:40.794Z,15.40
2017-09-09T21:09:09.115Z,15.30
2017-09-09T21:11:37.424Z,15.30
2017-09-09T21:14:05.867Z,15.30
2017-09-09T21:16:34.189Z,15.20
2017-09-09T21:19:02.903Z,15.20
2017-09-09T21:21:31.994Z,15.10
2017-09-09T21:24:01.123Z,15.10
2017-09-09T21:26:30.211Z,15.00
2017-09-09T21:28:59.266Z,15.00
2017-09-09T21:31:27.672Z,14.90
2017-09-09T21:33:56.072Z,14.90
2017-09-09T21:36:24.547Z,14.90
2017-09-09T21:38:53.630Z,14.80
2017-09-09T21:41:21.975Z,14.70
2017-09-09T21:43:50.295Z,14.70
2017-09-09T21:46:19.786Z,14.70
2017-09-09T21:48:48.862Z,14.70
2017-09-09T21:51:17.153Z,14.70
2017-09-09T21:53:46.251Z,14.80
2017-09-09T21:56:14.630Z,14.70
2017-09-09T21:58:43.794Z,14.70
2017-09-09T22:01:12.243Z,14.70
2017-09-09T22:03:40.563Z,14.70
2017-09-09T22:06:08.960Z,14.70
2017-09-09T22:08:38.057Z,14.60
2017-09-09T22:11:06.445Z,14.60
2017-09-09T22:13:35.631Z,14.60
2017-09-09T22:16:04.736Z,14.50
2017-09-09T22:18:33.204Z,14.50
2017-09-09T22:21:02.316Z,14.40
2017-09-09T22:23:31.406Z,14.40
2017-09-09T22:26:00.588Z,14.40
2017-09-09T22:28:29.659Z,14.40
2017-09-09T22:30:58.070Z,14.40
2017-09-09T22:33:27.143Z,14.40
2017-09-09T22:35:55.498Z,14.30
2017-09-09T22:38:23.803Z,14.30
2017-09-09T22:40:53.218Z,14.40
2017-09-09T22:43:22.318Z,14.40
2017-09-09T22:45:51.395Z,14.40
2017-09-09T22:48:19.722Z,14.40
2017-09-09T22:50:48.019Z,14.40
2017-09-09T22:53:16.339Z,14.40
2017-09-09T22:55:45.390Z,14.40
2017-09-09T22:58:13.812Z,14.30
2017-09-09T23:00:42.187Z,14.30
2017-09-09T23:03:10.543Z,14.30
2017-09-09T23:05:38.942Z,14.30
2017-09-09T23:08:08.006Z,14.30
2017-09-09T23:10:36.328Z,14.20
2017-09-09T23:13:04.691Z,14.20
2017-09-09T23:15:33.170Z,14.20
2017-09-09T23:18:02.234Z,14.20
2017-09-09T23:20:30.570Z,14.10
2017-09-09T23:22:58.921Z,14.20
2017-09-09T23:25:27.298Z,14.20
2017-09-09T23:27:55.652Z,14.10
2017-09-09T23:30:24.052Z,14.10
2017-09-09T23:32:53.325Z,14.10
2017-09-09T23:35:21.602Z,14.00
2017-09-09T23:37:49.912Z,14.00
2017-09-09T23:40:18.982Z,13.90
2017-09-09T23:42:48.050Z,13.90
2017-09-09T23:45:16.367Z,13.80
2017-09-09T23:47:44.753Z,13.80
2017-09-09T23:50:13.964Z,13.80
2017-09-09T23:52:42.262Z,13.80
2017-09-09T23:55:10.597Z,13.80
2017-09-09T23:57:38.903Z,13.80
